Time;durP1;ratioP1;P1;durP2;ratioP2;P2;SDS_P1;SDS_P2;PMS_P1;PMS_P2;Temp;Humidity;BMP_temperature;BMP_pressure;BME280_temperature;BME280_humidity;BME280_pressure;Samples;Min_cycle;Max_cycle;Signal;HPM_P1;HPM_P2
2021/11/14 00:01:14;;;;;;;133.90;51.28;;;;;;;8.54;100.00;101213.53;4988238;28;20050;-88
2021/11/14 00:03:40;;;;;;;134.68;54.13;;;;;;;8.54;100.00;101220.72;4973389;28;20137;-88
2021/11/14 00:06:08;;;;;;;140.20;54.38;;;;;;;8.53;100.00;101219.03;4950902;28;20045;-88
2021/11/14 00:08:34;;;;;;;137.70;54.38;;;;;;;8.53;100.00;101227.06;4973550;28;20346;-89
2021/11/14 00:11:09;;;;;;;141.38;53.35;;;;;;;8.53;100.00;101225.22;4992378;28;20065;-84
2021/11/14 00:13:38;;;;;;;137.07;53.95;;;;;;;8.52;100.00;101225.38;4974321;28;20125;-87
2021/11/14 00:16:04;;;;;;;;;;;;;;;8.52;100.00;101225.38;4952432;28;20042;-86
2021/11/14 00:18:29;;;;;;;126.90;50.92;;;;;;;8.45;100.00;101224.25;4993916;28;19917;-86
2021/11/14 00:20:57;;;;;;;133.60;49.30;;;;;;;8.44;100.00;101234.09;4957124;28;20047;-88
2021/11/14 00:23:22;;;;;;;134.20;47.65;;;;;;;8.45;100.00;101232.25;4992063;28;20049;-85
2021/11/14 00:25:47;;;;;;;141.65;50.88;;;;;;;8.47;100.00;101231.13;4958061;28;20038;-88
2021/11/14 00:28:13;;;;;;;130.10;50.13;;;;;;;8.47;100.00;101244.50;4942393;28;20145;-86
2021/11/14 00:30:39;;;;;;;124.97;48.17;;;;;;;8.46;100.00;101239.28;4956127;28;20053;-86
2021/11/14 00:33:06;;;;;;;120.75;48.60;;;;;;;8.47;100.00;101246.34;4970011;28;20137;-85
2021/11/14 00:35:32;;;;;;;126.72;45.97;;;;;;;8.46;100.00;101245.50;4983302;28;20049;-87
2021/11/14 00:37:57;;;;;;;119.03;45.78;;;;;;;8.47;100.00;101249.03;4991537;28;20044;-89
2021/11/14 00:40:26;;;;;;;123.75;48.85;;;;;;;8.46;100.00;101247.31;4957221;28;20120;-86
2021/11/14 00:42:54;;;;;;;120.70;46.78;;;;;;;8.46;100.00;101252.66;4973755;28;20047;-88
2021/11/14 00:45:20;;;;;;;120.45;48.13;;;;;;;8.44;100.00;101255.50;4997237;28;20153;-87
2021/11/14 00:47:46;;;;;;;125.10;47.08;;;;;;;8.44;100.00;101254.66;4992030;28;20058;-87
2021/11/14 00:50:12;;;;;;;121.22;48.22;;;;;;;8.42;100.00;101257.44;4991556;28;20046;-89
2021/11/14 00:52:40;;;;;;;122.20;48.58;;;;;;;8.42;100.00;101261.97;4981790;28;20043;-85
2021/11/14 00:55:07;;;;;;;114.10;46.15;;;;;;;8.40;100.00;101254.09;4988390;28;20044;-86
2021/11/14 00:57:33;;;;;;;123.97;46.78;;;;;;;8.40;100.00;101258.56;4971944;28;20342;-85
2021/11/14 00:59:58;;;;;;;114.90;46.83;;;;;;;8.40;100.00;101261.25;4989770;28;20050;-85
2021/11/14 01:02:24;;;;;;;113.70;46.25;;;;;;;8.39;100.00;101267.59;4965506;28;20073;-87
2021/11/14 01:04:49;;;;;;;116.00;48.13;;;;;;;8.39;100.00;101263.06;4988824;28;20181;-88
2021/11/14 01:07:15;;;;;;;116.10;47.72;;;;;;;8.37;100.00;101267.69;4988729;28;20034;-85
2021/11/14 01:09:40;;;;;;;116.93;47.75;;;;;;;8.36;100.00;101269.50;5005295;28;20049;-85
2021/11/14 01:12:07;;;;;;;101.00;44.17;;;;;;;8.35;100.00;101278.53;4971570;28;20541;-87
2021/11/14 01:14:33;;;;;;;110.25;46.92;;;;;;;8.33;100.00;101275.13;4955543;28;20561;-86
2021/11/14 01:16:58;;;;;;;111.15;44.90;;;;;;;8.33;100.00;101285.00;4941514;28;20038;-86
2021/11/14 01:19:24;;;;;;;106.68;44.75;;;;;;;8.30;100.00;101283.44;4956321;28;20049;-87
2021/11/14 01:21:50;;;;;;;103.00;47.22;;;;;;;8.30;100.00;101283.44;4965656;28;20048;-85
2021/11/14 01:24:16;;;;;;;107.28;47.20;;;;;;;8.27;100.00;101289.06;4953317;28;20058;-86
2021/11/14 01:26:42;;;;;;;106.70;46.67;;;;;;;8.28;100.00;101288.06;4968454;28;20066;-87
2021/11/14 01:29:07;;;;;;;98.68;44.38;;;;;;;8.26;100.00;101290.06;4969660;28;20065;-88
2021/11/14 01:31:33;;;;;;;98.53;44.47;;;;;;;8.25;100.00;101291.03;4968865;28;20515;-86
2021/11/14 01:33:58;;;;;;;101.57;44.13;;;;;;;8.23;100.00;101287.66;4983692;28;20448;-85
2021/11/14 01:36:24;;;;;;;93.82;42.45;;;;;;;8.23;100.00;101285.00;4940729;28;20468;-86
2021/11/14 01:38:50;;;;;;;93.97;41.72;;;;;;;8.22;100.00;101293.97;4971886;28;20586;-86
2021/11/14 01:41:16;;;;;;;85.20;38.28;;;;;;;8.20;100.00;101298.63;4971932;28;20042;-86
2021/11/14 01:43:48;;;;;;;88.45;41.97;;;;;;;8.18;100.00;101291.72;4970733;28;20403;-86
2021/11/14 01:46:14;;;;;;;79.82;37.75;;;;;;;8.17;100.00;101295.38;4955328;28;20129;-87
2021/11/14 01:48:41;;;;;;;84.80;41.15;;;;;;;8.16;100.00;101302.53;4955110;28;20047;-87
2021/11/14 01:51:07;;;;;;;82.03;37.88;;;;;;;8.14;100.00;101305.38;4971658;28;20062;-88
2021/11/14 01:53:35;;;;;;;83.75;39.83;;;;;;;8.14;100.00;101313.38;4954936;28;20038;-87
2021/11/14 01:56:02;;;;;;;83.75;41.53;;;;;;;8.13;100.00;101313.50;4953867;28;20819;-87
2021/11/14 01:58:29;;;;;;;78.55;37.80;;;;;;;8.10;100.00;101308.44;4947660;28;20047;-90
2021/11/14 02:00:59;;;;;;;76.63;37.83;;;;;;;8.11;100.00;101312.78;4978797;28;20043;-87
2021/11/14 02:03:27;;;;;;;78.18;38.03;;;;;;;8.09;100.00;101312.09;4962121;28;20487;-87
2021/11/14 02:05:54;;;;;;;75.72;40.50;;;;;;;8.08;100.00;101313.06;4976139;28;20042;-87
2021/11/14 02:08:20;;;;;;;78.22;37.95;;;;;;;8.07;100.00;101316.72;4979922;28;20089;-88
2021/11/14 02:10:47;;;;;;;76.45;37.53;;;;;;;8.03;100.00;101310.81;4975682;28;20133;-87
2021/11/14 02:13:14;;;;;;;77.07;38.40;;;;;;;8.03;100.00;101320.66;4981646;28;20543;-86
2021/11/14 02:15:41;;;;;;;76.00;38.50;;;;;;;8.02;100.00;101322.47;4981703;28;20050;-86
2021/11/14 02:18:09;;;;;;;78.20;38.45;;;;;;;8.01;100.00;101327.97;4979166;28;20077;-85
2021/11/14 02:20:36;;;;;;;74.72;39.70;;;;;;;8.01;100.00;101333.31;4961946;28;20043;-87
2021/11/14 02:23:05;;;;;;;71.97;33.50;;;;;;;7.97;100.00;101330.06;4947353;28;20121;-87
2021/11/14 02:25:31;;;;;;;68.63;36.25;;;;;;;7.97;100.00;101331.88;4974325;28;20135;-85
2021/11/14 02:27:59;;;;;;;67.88;35.80;;;;;;;7.95;100.00;101336.53;4965686;28;20046;-86
2021/11/14 02:30:26;;;;;;;69.07;36.97;;;;;;;7.95;100.00;101345.38;4964103;28;20054;-86
2021/11/14 02:32:53;;;;;;;65.57;36.30;;;;;;;7.91;100.00;101344.81;4971224;28;20530;-87
2021/11/14 02:35:21;;;;;;;67.38;34.33;;;;;;;7.90;100.00;101344.94;4940413;28;20820;-85
2021/11/14 02:37:47;;;;;;;65.97;33.90;;;;;;;7.90;100.00;101352.94;4952180;28;20514;-86
2021/11/14 02:40:16;;;;;;;70.68;35.90;;;;;;;7.87;100.00;101353.22;4961086;28;20038;-85
2021/11/14 02:42:46;;;;;;;62.88;34.13;;;;;;;7.86;100.00;101357.72;4949988;28;20203;-87
2021/11/14 02:45:14;;;;;;;74.50;36.63;;;;;;;7.86;100.00;101363.06;4973439;28;20081;-85
2021/11/14 02:47:40;;;;;;;62.35;35.03;;;;;;;7.85;100.00;101372.06;4944213;28;20129;-88
2021/11/14 02:50:09;;;;;;;64.05;35.03;;;;;;;7.84;100.00;101365.00;4970153;28;20506;-87
2021/11/14 02:52:35;;;;;;;58.00;34.35;;;;;;;7.83;100.00;101363.31;4966357;28;20034;-87
2021/11/14 02:55:03;;;;;;;61.67;34.05;;;;;;;7.83;100.00;101368.66;4967564;28;20043;-85
2021/11/14 02:57:29;;;;;;;62.08;35.13;;;;;;;7.82;100.00;101371.47;4982426;28;20051;-87
2021/11/14 02:59:55;;;;;;;65.10;32.95;;;;;;;7.81;100.00;101373.28;4953855;28;20376;-87
2021/11/14 03:02:20;;;;;;;61.17;34.28;;;;;;;7.79;100.00;101372.56;4966310;28;20624;-86
2021/11/14 03:04:47;;;;;;;63.53;34.75;;;;;;;7.80;100.00;101376.09;4974123;28;20108;-87
2021/11/14 03:07:13;;;;;;;64.13;33.88;;;;;;;7.79;100.00;101374.41;4983906;28;20045;-86
2021/11/14 03:09:38;;;;;;;61.47;34.88;;;;;;;7.79;100.00;101374.41;4982887;28;20403;-87
2021/11/14 03:12:05;;;;;;;59.63;32.78;;;;;;;7.78;100.00;101378.06;4980405;28;20514;-89
2021/11/14 03:14:30;;;;;;;63.20;33.95;;;;;;;7.76;100.00;101378.19;4967767;28;20496;-86
2021/11/14 03:16:56;;;;;;;56.42;31.45;;;;;;;7.75;100.00;101381.84;4984142;28;20072;-87
2021/11/14 03:19:22;;;;;;;65.22;32.40;;;;;;;7.73;100.00;101382.94;4966219;28;20411;-86
2021/11/14 03:21:53;;;;;;;61.80;32.15;;;;;;;7.72;100.00;101382.09;4965772;28;20054;-85
2021/11/14 03:24:19;;;;;;;73.28;34.25;;;;;;;7.74;100.00;101393.50;4979497;28;20307;-85
2021/11/14 03:26:45;;;;;;;67.78;35.55;;;;;;;7.77;100.00;101392.38;4954309;28;20467;-85
2021/11/14 03:29:11;;;;;;;68.60;35.72;;;;;;;7.76;100.00;101394.22;4973285;28;20038;-86
2021/11/14 03:31:37;;;;;;;71.57;37.33;;;;;;;7.76;100.00;101394.22;4951159;28;20384;-85
2021/11/14 03:34:03;;;;;;;69.18;36.75;;;;;;;7.77;100.00;101393.25;4965834;28;20101;-85
2021/11/14 03:36:30;;;;;;;71.57;36.22;;;;;;;7.76;100.00;101396.88;4985132;28;20069;-87
2021/11/14 03:38:59;;;;;;;74.78;36.95;;;;;;;7.77;100.00;101397.72;4999876;28;20045;-86
2021/11/14 03:41:38;;;;;;;79.90;41.20;;;;;;;7.75;100.00;101392.53;4986675;28;20403;-86
2021/11/14 03:44:06;;;;;;;84.82;37.45;;;;;;;7.74;100.00;101398.84;4970491;28;20121;-87
2021/11/14 03:46:32;;;;;;;85.32;37.47;;;;;;;7.71;100.00;101404.47;4969086;28;20046;-85
2021/11/14 03:48:59;;;;;;;86.28;38.25;;;;;;;7.71;100.00;101407.13;4984304;28;20314;-86
2021/11/14 03:51:26;;;;;;;90.70;41.08;;;;;;;7.72;100.00;101414.16;4984584;28;20121;-87
2021/11/14 03:53:53;;;;;;;80.03;37.92;;;;;;;7.72;100.00;101416.84;4984917;28;20048;-87
2021/11/14 03:56:18;;;;;;;85.55;40.65;;;;;;;7.72;100.00;101411.50;4983051;28;20038;-87
2021/11/14 03:58:44;;;;;;;87.95;39.88;;;;;;;7.74;100.00;101419.34;4984453;28;20498;-86
2021/11/14 04:01:16;;;;;;;82.03;39.38;;;;;;;7.75;100.00;101418.41;4985944;28;20070;-85
2021/11/14 04:03:42;;;;;;;83.20;38.78;;;;;;;7.72;100.00;101424.84;4967795;28;20050;-86
2021/11/14 04:06:07;;;;;;;83.32;38.60;;;;;;;7.73;100.00;101429.19;4980075;28;20096;-87
2021/11/14 04:08:34;;;;;;;90.90;39.15;;;;;;;7.74;100.00;101427.38;4976145;28;20045;-87
2021/11/14 04:11:00;;;;;;;92.78;44.60;;;;;;;7.73;100.00;101431.88;4985593;28;20062;-88
2021/11/14 04:13:30;;;;;;;104.03;44.90;;;;;;;7.75;100.00;101437.09;4967068;28;20381;-87
2021/11/14 04:16:02;;;;;;;99.25;40.08;;;;;;;7.75;100.00;101443.28;4967144;28;20089;-88
2021/11/14 04:18:28;;;;;;;105.65;45.22;;;;;;;7.77;100.00;101437.78;4980096;28;20170;-87
2021/11/14 04:20:55;;;;;;;99.85;41.15;;;;;;;7.77;100.00;101437.78;4954646;28;20072;-85
2021/11/14 04:23:22;;;;;;;104.90;47.50;;;;;;;7.76;100.00;101442.31;4982761;28;20404;-84
2021/11/14 04:25:49;;;;;;;122.18;47.55;;;;;;;7.78;100.00;101439.50;4933494;28;20403;-87
2021/11/14 04:28:16;;;;;;;101.05;45.72;;;;;;;7.78;100.00;101456.38;4963437;28;20053;-85
2021/11/14 04:30:43;;;;;;;101.22;45.42;;;;;;;7.77;100.00;101454.69;4963612;28;20045;-85
2021/11/14 04:33:10;;;;;;;109.85;46.85;;;;;;;7.78;100.00;101458.22;4968857;28;20042;-87
2021/11/14 04:35:36;;;;;;;108.00;46.33;;;;;;;7.79;100.00;101460.75;4967683;28;20776;-88
2021/11/14 04:38:02;;;;;;;103.88;41.85;;;;;;;7.79;100.00;101470.59;4967422;28;20042;-86
2021/11/14 04:40:32;;;;;;;113.18;45.67;;;;;;;7.78;100.00;101461.72;4974344;28;20108;-88
2021/11/14 04:42:57;;;;;;;;;;;;;;;7.80;100.00;101467.78;4953674;28;20128;-85
2021/11/14 04:45:23;;;;;;;112.28;45.83;;;;;;;7.75;100.00;101471.84;4982748;28;19914;-85
2021/11/14 04:47:51;;;;;;;102.85;46.40;;;;;;;7.72;100.00;101467.59;4985169;28;20066;-85
2021/11/14 04:50:19;;;;;;;95.83;45.87;;;;;;;7.76;100.00;101478.84;4952415;28;20038;-88
2021/11/14 04:52:46;;;;;;;102.32;45.08;;;;;;;7.75;100.00;101478.03;4966403;28;20057;-85
2021/11/14 04:55:14;;;;;;;101.22;44.53;;;;;;;7.74;100.00;101481.69;4969698;28;20430;-87
2021/11/14 04:57:40;;;;;;;88.45;40.05;;;;;;;7.75;100.00;101485.19;4980779;28;20034;-85
2021/11/14 05:00:13;;;;;;;96.28;41.25;;;;;;;7.76;100.00;101486.88;4967872;28;20053;-86
2021/11/14 05:02:38;;;;;;;94.50;36.38;;;;;;;7.74;100.00;101487.03;4962745;28;20495;-86
2021/11/14 05:05:06;;;;;;;97.93;39.05;;;;;;;7.74;100.00;101497.72;4978154;28;20054;-87
2021/11/14 05:07:33;;;;;;;88.88;38.90;;;;;;;7.75;100.00;101494.06;4948902;28;20127;-86
2021/11/14 05:10:00;;;;;;;86.93;35.85;;;;;;;7.74;100.00;101496.84;4981738;28;20042;-87
2021/11/14 05:12:27;;;;;;;90.00;36.72;;;;;;;7.73;100.00;101496.00;4942460;28;20030;-91
2021/11/14 05:14:52;;;;;;;95.55;37.10;;;;;;;7.72;100.00;101488.97;4967523;28;20050;-87
2021/11/14 05:17:17;;;;;;;90.13;35.67;;;;;;;7.73;100.00;101490.66;4968363;28;20050;-88
2021/11/14 05:19:49;;;;;;;86.68;35.72;;;;;;;7.74;100.00;101499.50;4967262;28;20042;-85
2021/11/14 05:22:15;;;;;;;90.22;34.65;;;;;;;7.73;100.00;101492.47;4967557;28;20411;-86
2021/11/14 05:24:40;;;;;;;84.22;35.05;;;;;;;7.74;100.00;101503.06;4952251;28;20057;-86
2021/11/14 05:27:06;;;;;;;84.75;35.70;;;;;;;7.73;100.00;101501.34;4991233;28;20043;-87
2021/11/14 05:29:32;;;;;;;89.80;36.78;;;;;;;7.74;100.00;101505.72;4985246;28;20100;-87
2021/11/14 05:31:58;;;;;;;83.03;33.70;;;;;;;7.73;100.00;101506.69;4950825;28;20126;-88
2021/11/14 05:34:25;;;;;;;91.93;37.38;;;;;;;7.73;100.00;101517.38;4963452;28;20034;-87
2021/11/14 05:36:51;;;;;;;90.28;37.80;;;;;;;7.74;100.00;101518.22;4967658;28;20126;-87
2021/11/14 05:39:17;;;;;;;86.22;38.28;;;;;;;7.76;100.00;101525.13;4966664;28;20126;-88
2021/11/14 05:41:50;;;;;;;82.43;36.10;;;;;;;7.77;100.00;101523.28;4966803;28;20063;-87
2021/11/14 05:44:15;;;;;;;83.57;36.30;;;;;;;7.77;100.00;101523.28;4950339;28;20069;-87
2021/11/14 05:46:41;;;;;;;86.82;38.33;;;;;;;7.77;100.00;101540.19;4950774;28;20476;-88
2021/11/14 05:49:09;;;;;;;85.18;39.08;;;;;;;7.78;100.00;101536.53;4967572;28;20395;-86
2021/11/14 05:51:36;;;;;;;87.00;38.47;;;;;;;7.78;100.00;101541.88;4957065;28;20349;-85
2021/11/14 05:54:05;;;;;;;98.70;38.78;;;;;;;7.76;100.00;101535.81;4933649;28;20458;-88
2021/11/14 05:56:32;;;;;;;91.65;37.85;;;;;;;7.76;100.00;101543.81;4965300;28;20042;-87
2021/11/14 06:01:35;;;;;;;83.30;36.50;;;;;;;7.76;100.00;101551.00;4970201;28;20081;-86
2021/11/14 06:04:22;;;;;;;85.32;34.67;;;;;;;7.74;100.00;101560.97;4981546;28;20050;-86
2021/11/14 06:06:48;;;;;;;83.18;38.20;;;;;;;7.72;100.00;101561.09;4951894;28;20129;-87
2021/11/14 06:09:14;;;;;;;85.18;39.17;;;;;;;7.72;100.00;101563.78;4958450;28;20134;-85
2021/11/14 06:11:41;;;;;;;89.03;38.03;;;;;;;7.73;100.00;101568.13;4972996;28;20069;-87
2021/11/14 06:14:09;;;;;;;86.32;35.75;;;;;;;7.73;100.00;101570.81;4946128;28;20617;-87
2021/11/14 06:16:36;;;;;;;90.90;36.97;;;;;;;7.75;100.00;101574.22;4962929;28;20042;-85
2021/11/14 06:19:02;;;;;;;85.28;35.05;;;;;;;7.74;100.00;101580.53;4950879;28;20060;-88
2021/11/14 06:21:27;;;;;;;84.22;36.28;;;;;;;7.74;100.00;101580.53;4951408;28;20046;-87
2021/11/14 06:23:54;;;;;;;83.07;34.90;;;;;;;7.74;100.00;101583.22;4951799;28;20086;-87
2021/11/14 06:26:22;;;;;;;86.25;37.10;;;;;;;7.74;100.00;101588.56;4969696;28;20050;-88
2021/11/14 06:28:48;;;;;;;78.43;33.80;;;;;;;7.73;100.00;101592.19;4967224;28;20042;-86
2021/11/14 06:31:13;;;;;;;87.13;38.13;;;;;;;7.73;100.00;101594.84;4952617;28;20039;-88
2021/11/14 06:33:41;;;;;;;87.38;32.67;;;;;;;7.72;100.00;101592.31;4968505;28;20046;-85
2021/11/14 06:36:06;;;;;;;80.68;33.05;;;;;;;7.73;100.00;101605.53;4959971;28;20077;-89
2021/11/14 06:38:32;;;;;;;78.82;31.08;;;;;;;7.72;100.00;101603.84;4979667;28;20498;-88
2021/11/14 06:41:00;;;;;;;76.63;32.03;;;;;;;7.74;100.00;101619.75;4988071;28;20395;-89
2021/11/14 06:43:25;;;;;;;78.97;33.25;;;;;;;7.72;100.00;101614.53;4988800;28;20680;-86
2021/11/14 06:46:00;;;;;;;86.20;34.80;;;;;;;7.75;100.00;101610.78;4975350;28;20069;-91
2021/11/14 06:48:25;;;;;;;90.30;34.33;;;;;;;7.76;100.00;101623.97;4994795;28;20502;-86
2021/11/14 06:50:51;;;;;;;84.20;34.33;;;;;;;7.74;100.00;101628.63;4959076;28;20080;-88
2021/11/14 06:53:16;;;;;;;85.63;35.55;;;;;;;7.77;100.00;101625.69;4979760;28;20050;-85
2021/11/14 06:55:42;;;;;;;88.18;35.80;;;;;;;7.77;100.00;101633.72;4982092;28;20034;-89
2021/11/14 06:58:07;;;;;;;89.28;36.75;;;;;;;7.78;100.00;101634.56;4993222;28;20039;-85
2021/11/14 07:00:32;;;;;;;89.35;35.67;;;;;;;7.77;100.00;101640.84;5016657;28;20077;-86
2021/11/14 07:02:58;;;;;;;88.50;38.45;;;;;;;7.78;100.00;101645.25;4987204;28;20049;-87
2021/11/14 07:05:23;;;;;;;90.60;35.35;;;;;;;7.79;100.00;101649.59;4980021;28;20037;-89
2021/11/14 07:07:50;;;;;;;92.13;35.78;;;;;;;7.78;100.00;101646.09;4973843;28;20081;-88
2021/11/14 07:10:17;;;;;;;87.80;36.95;;;;;;;7.79;100.00;101653.13;4980769;28;20070;-89
2021/11/14 07:12:43;;;;;;;88.25;34.05;;;;;;;7.81;100.00;101655.69;4987497;28;20483;-86
2021/11/14 07:15:12;;;;;;;89.45;36.70;;;;;;;7.81;100.00;101667.22;4974967;28;20073;-88
2021/11/14 07:17:38;;;;;;;95.03;34.25;;;;;;;7.81;100.00;101672.56;4975625;28;20117;-87
2021/11/14 07:20:08;;;;;;;97.65;37.40;;;;;;;7.82;100.00;101679.59;4993712;28;20042;-86
2021/11/14 07:22:34;;;;;;;93.65;36.08;;;;;;;7.83;100.00;101678.63;4992252;28;20042;-88
2021/11/14 07:25:00;;;;;;;101.25;35.17;;;;;;;7.84;100.00;101684.81;4986471;28;20123;-87
2021/11/14 07:27:25;;;;;;;97.88;34.65;;;;;;;7.82;100.00;101679.59;4988781;28;20446;-87
2021/11/14 07:29:50;;;;;;;89.65;33.05;;;;;;;7.83;100.00;101681.31;4960687;28;20056;-88
2021/11/14 07:32:18;;;;;;;100.97;35.65;;;;;;;7.84;100.00;101691.00;4962685;28;20181;-89
2021/11/14 07:34:44;;;;;;;97.03;32.67;;;;;;;7.83;100.00;101689.31;4993403;28;20490;-88
2021/11/14 07:37:09;;;;;;;99.10;35.25;;;;;;;7.85;100.00;101697.19;4993114;28;20396;-87
2021/11/14 07:39:35;;;;;;;92.68;32.90;;;;;;;7.87;100.00;101696.09;4995236;28;20053;-87
2021/11/14 07:42:00;;;;;;;103.88;34.38;;;;;;;7.86;100.00;101702.44;4955347;28;20108;-89
2021/11/14 07:44:25;;;;;;;92.57;30.75;;;;;;;7.84;100.00;101701.72;4995543;28;20038;-87
2021/11/14 07:46:51;;;;;;;96.38;34.08;;;;;;;7.86;100.00;101710.47;4992514;28;20046;-86
2021/11/14 07:49:16;;;;;;;89.45;32.63;;;;;;;7.86;100.00;101710.47;4968612;28;20520;-85
2021/11/14 07:51:43;;;;;;;92.47;35.17;;;;;;;7.88;100.00;101703.19;4992054;28;20050;-88
2021/11/14 07:54:09;;;;;;;99.53;34.08;;;;;;;7.88;100.00;101719.22;4975656;28;20040;-86
2021/11/14 07:56:34;;;;;;;90.00;33.38;;;;;;;7.90;100.00;101714.56;4980910;28;20038;-87
2021/11/14 07:59:00;;;;;;;88.80;32.58;;;;;;;7.89;100.00;101718.22;4974287;28;20372;-86
2021/11/14 08:01:25;;;;;;;96.68;34.42;;;;;;;7.91;100.00;101724.31;4993371;28;20751;-85
2021/11/14 08:03:52;;;;;;;94.38;34.28;;;;;;;7.93;100.00;101726.00;5010113;28;20046;-87
2021/11/14 08:06:19;;;;;;;92.60;34.50;;;;;;;7.93;100.00;101731.34;4961560;28;20084;-86
2021/11/14 08:08:44;;;;;;;100.40;34.60;;;;;;;7.94;100.00;101733.03;4992850;28;20034;-87
2021/11/14 08:11:10;;;;;;;89.18;34.35;;;;;;;7.93;100.00;101736.69;4977023;28;20373;-86
2021/11/14 08:13:35;;;;;;;90.22;34.55;;;;;;;7.93;100.00;101737.53;4992423;28;20521;-88
2021/11/14 08:16:00;;;;;;;96.93;36.20;;;;;;;7.93;100.00;101742.03;5008923;28;20038;-84
2021/11/14 08:18:26;;;;;;;89.32;32.95;;;;;;;7.94;100.00;101751.72;4968459;28;20130;-85
2021/11/14 08:20:51;;;;;;;92.72;36.17;;;;;;;7.97;100.00;101751.47;4993866;28;20426;-87
2021/11/14 08:23:17;;;;;;;100.50;36.38;;;;;;;7.97;100.00;101757.69;4990902;28;20034;-88
2021/11/14 08:25:44;;;;;;;87.38;32.28;;;;;;;7.98;100.00;101758.56;4992218;28;20414;-84
2021/11/14 08:28:11;;;;;;;87.38;32.70;;;;;;;7.97;100.00;101752.34;4993675;28;20512;-89
2021/11/14 08:30:37;;;;;;;86.45;35.58;;;;;;;7.99;100.00;101763.75;5010948;28;20080;-87
2021/11/14 08:33:04;;;;;;;87.15;34.72;;;;;;;8.00;100.00;101753.91;4991404;28;20418;-85
2021/11/14 08:35:30;;;;;;;81.30;33.63;;;;;;;8.03;100.00;101764.38;4994660;28;20576;-86
2021/11/14 08:38:00;;;;;;;82.85;34.42;;;;;;;8.01;100.00;101759.16;4975803;28;20042;-86
2021/11/14 08:40:28;;;;;;;97.03;39.00;;;;;;;8.03;100.00;101765.22;4990318;28;20033;-87
2021/11/14 08:42:55;;;;;;;89.25;33.85;;;;;;;8.03;100.00;101767.06;4991401;28;20050;-87
2021/11/14 08:45:21;;;;;;;90.95;35.72;;;;;;;8.03;100.00;101769.72;4989910;28;20141;-89
2021/11/14 08:47:47;;;;;;;91.28;34.72;;;;;;;8.05;100.00;101770.44;4991773;28;20069;-89
2021/11/14 08:50:12;;;;;;;93.78;35.40;;;;;;;8.07;100.00;101776.50;4983955;28;20045;-88
2021/11/14 08:52:44;;;;;;;92.55;34.22;;;;;;;8.09;100.00;101780.75;5011278;28;20113;-87
2021/11/14 08:55:09;;;;;;;89.65;37.03;;;;;;;8.09;100.00;101779.91;4993812;28;20124;-87
2021/11/14 08:57:35;;;;;;;90.60;35.40;;;;;;;8.06;100.00;101788.19;4991905;28;20129;-88
2021/11/14 09:00:00;;;;;;;90.05;36.97;;;;;;;8.08;100.00;101789.75;4996414;28;20437;-88
2021/11/14 09:02:26;;;;;;;87.32;34.00;;;;;;;8.08;100.00;101797.75;5012424;28;20072;-90
2021/11/14 09:04:51;;;;;;;82.88;35.55;;;;;;;8.08;100.00;101800.44;4977894;28;20042;-89
2021/11/14 09:07:17;;;;;;;81.88;33.97;;;;;;;8.11;100.00;101807.34;4992862;28;20054;-89
2021/11/14 09:09:42;;;;;;;85.30;34.28;;;;;;;8.12;100.00;101806.41;4980714;28;20033;-89
2021/11/14 09:12:08;;;;;;;79.82;35.85;;;;;;;8.11;100.00;101807.34;4995860;28;20410;-86
2021/11/14 09:14:34;;;;;;;90.95;37.45;;;;;;;8.14;100.00;101817.81;5011425;28;20038;-90
2021/11/14 09:16:59;;;;;;;91.47;38.55;;;;;;;8.16;100.00;101815.88;5001551;28;20081;-87
2021/11/14 09:19:25;;;;;;;86.70;36.35;;;;;;;8.17;100.00;101806.88;5002677;28;20048;-87
2021/11/14 09:21:51;;;;;;;91.75;38.47;;;;;;;8.18;100.00;101805.91;4992882;28;20048;-87
2021/11/14 09:24:17;;;;;;;89.97;37.25;;;;;;;8.20;100.00;101820.00;4994242;28;20124;-89
2021/11/14 09:26:43;;;;;;;96.28;37.22;;;;;;;8.22;100.00;101811.84;5012260;28;20058;-90
2021/11/14 09:29:10;;;;;;;88.72;40.08;;;;;;;8.23;100.00;101819.75;4994465;28;20469;-86
2021/11/14 09:31:36;;;;;;;98.15;39.25;;;;;;;8.24;100.00;101821.44;4995200;28;20509;-88
2021/11/14 09:34:03;;;;;;;98.70;37.92;;;;;;;8.26;100.00;101816.84;5010658;28;20046;-89
2021/11/14 09:36:30;;;;;;;95.15;36.78;;;;;;;8.25;100.00;101828.50;4993785;28;20434;-86
2021/11/14 09:39:02;;;;;;;84.57;33.50;;;;;;;8.26;100.00;101840.91;4962989;28;20046;-85
2021/11/14 09:41:29;;;;;;;90.80;36.97;;;;;;;8.26;100.00;101840.91;4994311;28;20057;-91
2021/11/14 09:43:54;;;;;;;90.60;36.50;;;;;;;8.28;100.00;101846.97;4977631;28;20483;-88
2021/11/14 09:46:20;;;;;;;90.07;38.63;;;;;;;8.34;100.00;101854.50;4994517;28;20052;-91
2021/11/14 09:48:46;;;;;;;90.85;39.20;;;;;;;8.35;100.00;101844.66;4977853;28;20043;-89
2021/11/14 09:51:12;;;;;;;91.32;39.67;;;;;;;8.34;100.00;101845.63;5012116;28;20072;-88
2021/11/14 09:53:37;;;;;;;90.60;36.63;;;;;;;8.38;100.00;101851.59;4994065;28;20062;-88
2021/11/14 09:56:05;;;;;;;86.65;36.35;;;;;;;8.39;100.00;101864.00;4977540;28;20042;-89
2021/11/14 09:58:31;;;;;;;89.82;37.40;;;;;;;8.40;100.00;101855.00;4993889;28;20042;-89
2021/11/14 10:00:58;;;;;;;90.57;38.88;;;;;;;8.42;100.00;101869.09;4982725;28;20041;-89
2021/11/14 10:03:23;;;;;;;88.43;35.88;;;;;;;8.41;100.00;101864.75;4997935;28;20045;-86
2021/11/14 10:05:49;;;;;;;98.22;39.92;;;;;;;8.45;100.00;101856.31;4997300;28;20041;-89
2021/11/14 10:08:16;;;;;;;91.50;38.83;;;;;;;8.45;100.00;101860.84;5014163;28;20064;-86
2021/11/14 10:10:53;;;;;;;92.78;39.03;;;;;;;8.46;100.00;101863.41;5012748;28;20044;-87
2021/11/14 10:13:30;;;;;;;82.40;36.10;;;;;;;8.47;100.00;101865.09;5007954;28;20053;-90
2021/11/14 10:16:13;;;;;;;92.50;38.88;;;;;;;8.48;100.00;101860.59;4987874;28;20045;-87
2021/11/14 10:18:40;;;;;;;91.03;39.22;;;;;;;8.49;100.00;101862.31;4976391;28;20494;-90
2021/11/14 10:21:08;;;;;;;81.32;37.53;;;;;;;8.50;100.00;101870.19;5010192;28;20046;-85
2021/11/14 10:23:36;;;;;;;88.20;38.20;;;;;;;8.56;100.00;101858.97;4984282;28;20515;-85
2021/11/14 10:26:10;;;;;;;88.47;39.50;;;;;;;8.60;100.00;101864.94;4981171;28;20050;-84
2021/11/14 10:28:47;;;;;;;84.80;37.30;;;;;;;8.63;100.00;101867.38;4985371;28;20084;-85
2021/11/14 10:31:19;;;;;;;86.20;38.53;;;;;;;8.67;100.00;101865.28;4999072;28;20038;-89
2021/11/14 10:33:45;;;;;;;80.25;35.67;;;;;;;8.64;100.00;101871.75;5011495;28;20034;-90
2021/11/14 10:36:10;;;;;;;80.72;35.50;;;;;;;8.64;100.00;101874.44;4978029;28;20103;-88
2021/11/14 10:38:38;;;;;;;79.50;36.90;;;;;;;8.67;100.00;101871.50;4978724;28;20046;-87
2021/11/14 10:41:08;;;;;;;75.15;36.55;;;;;;;8.71;100.00;101872.09;5009414;28;20042;-89
2021/11/14 10:43:38;;;;;;;80.15;36.20;;;;;;;8.76;100.00;101868.06;4977755;28;20553;-88
2021/11/14 10:46:04;;;;;;;78.32;37.33;;;;;;;8.76;100.00;101870.72;4975915;28;20441;-87
2021/11/14 10:48:31;;;;;;;69.00;35.67;;;;;;;8.77;100.00;101875.09;4990706;28;20106;-88
2021/11/14 10:51:00;;;;;;;72.63;36.72;;;;;;;8.79;100.00;101872.31;4997521;28;20046;-91
2021/11/14 10:53:30;;;;;;;70.60;34.00;;;;;;;8.83;100.00;101868.38;5013284;28;20037;-88
2021/11/14 10:56:06;;;;;;;72.78;35.53;;;;;;;8.86;100.00;101878.00;5012545;28;20124;-85
2021/11/14 10:58:32;;;;;;;74.85;33.80;;;;;;;8.86;100.00;101881.56;4978453;28;20037;-88
2021/11/14 11:01:08;;;;;;;70.38;35.63;;;;;;;8.91;100.00;101881.16;4995927;28;20380;-85
2021/11/14 11:03:40;;;;;;;72.05;33.53;;;;;;;8.92;100.00;101880.16;4998760;28;20049;-86
2021/11/14 11:06:16;;;;;;;64.85;32.85;;;;;;;8.96;100.00;101882.47;4998827;28;20046;-88
2021/11/14 11:08:44;;;;;;;67.72;33.65;;;;;;;8.98;100.00;101885.88;4994276;28;20045;-89
2021/11/14 11:11:10;;;;;;;70.17;35.27;;;;;;;9.02;100.00;101889.16;4967610;28;20042;-89